sensor_id;sensor_type;location;lat;lon;timestamp;temperature;humidity
25937;DHT22;13733;51.178;4.450;2023-06-10T00:01:25;23.70;95.20
25937;DHT22;13733;51.178;4.450;2023-06-10T00:03:51;23.70;95.40
25937;DHT22;13733;51.178;4.450;2023-06-10T00:06:17;23.60;95.70
25937;DHT22;13733;51.178;4.450;2023-06-10T00:08:43;23.60;96.10
25937;DHT22;13733;51.178;4.450;2023-06-10T00:11:09;23.60;96.50
25937;DHT22;13733;51.178;4.450;2023-06-10T00:13:35;23.50;96.80
25937;DHT22;13733;51.178;4.450;2023-06-10T00:16:02;23.50;97.10
25937;DHT22;13733;51.178;4.450;2023-06-10T00:18:28;23.50;97.60
25937;DHT22;13733;51.178;4.450;2023-06-10T00:20:57;23.40;97.80
25937;DHT22;13733;51.178;4.450;2023-06-10T00:23:28;23.40;98.20
25937;DHT22;13733;51.178;4.450;2023-06-10T00:25:58;23.40;98.40
25937;DHT22;13733;51.178;4.450;2023-06-10T00:28:24;23.40;98.70
25937;DHT22;13733;51.178;4.450;2023-06-10T00:30:51;23.30;99.10
25937;DHT22;13733;51.178;4.450;2023-06-10T00:33:17;23.20;99.60
25937;DHT22;13733;51.178;4.450;2023-06-10T00:35:42;23.20;99.70
25937;DHT22;13733;51.178;4.450;2023-06-10T00:38:08;23.10;99.90
25937;DHT22;13733;51.178;4.450;2023-06-10T00:40:41;23.10;99.90
25937;DHT22;13733;51.178;4.450;2023-06-10T00:43:08;23.10;99.90
25937;DHT22;13733;51.178;4.450;2023-06-10T00:45:34;23.10;99.90
25937;DHT22;13733;51.178;4.450;2023-06-10T00:48:00;23.00;99.90
25937;DHT22;13733;51.178;4.450;2023-06-10T00:50:26;22.90;99.90
25937;DHT22;13733;51.178;4.450;2023-06-10T00:52:54;22.90;99.90
25937;DHT22;13733;51.178;4.450;2023-06-10T00:55:20;22.90;99.90
25937;DHT22;13733;51.178;4.450;2023-06-10T00:57:46;22.90;99.90
25937;DHT22;13733;51.178;4.450;2023-06-10T01:00:14;22.80;99.90
25937;DHT22;13733;51.178;4.450;2023-06-10T01:02:41;22.80;99.90
25937;DHT22;13733;51.178;4.450;2023-06-10T01:05:08;22.80;99.90
25937;DHT22;13733;51.178;4.450;2023-06-10T01:07:46;22.70;99.90
25937;DHT22;13733;51.178;4.450;2023-06-10T01:10:23;22.70;99.90
25937;DHT22;13733;51.178;4.450;2023-06-10T01:13:05;22.60;99.90
25937;DHT22;13733;51.178;4.450;2023-06-10T01:15:34;22.60;99.90
25937;DHT22;13733;51.178;4.450;2023-06-10T01:18:06;22.60;99.90
25937;DHT22;13733;51.178;4.450;2023-06-10T01:20:32;22.60;99.90
25937;DHT22;13733;51.178;4.450;2023-06-10T01:23:00;22.50;99.90
25937;DHT22;13733;51.178;4.450;2023-06-10T01:25:27;22.50;99.90
25937;DHT22;13733;51.178;4.450;2023-06-10T01:33:37;22.30;99.90
25937;DHT22;13733;51.178;4.450;2023-06-10T01:36:05;22.30;99.90
25937;DHT22;13733;51.178;4.450;2023-06-10T01:38:39;22.30;99.90
25937;DHT22;13733;51.178;4.450;2023-06-10T01:41:06;22.20;99.90
25937;DHT22;13733;51.178;4.450;2023-06-10T01:43:38;22.20;99.90
25937;DHT22;13733;51.178;4.450;2023-06-10T01:46:04;22.20;99.90
25937;DHT22;13733;51.178;4.450;2023-06-10T01:48:29;22.20;99.90
25937;DHT22;13733;51.178;4.450;2023-06-10T01:50:55;22.10;99.90
25937;DHT22;13733;51.178;4.450;2023-06-10T01:53:22;22.10;99.90
25937;DHT22;13733;51.178;4.450;2023-06-10T01:55:48;22.10;99.90
25937;DHT22;13733;51.178;4.450;2023-06-10T01:58:13;22.10;99.90
25937;DHT22;13733;51.178;4.450;2023-06-10T02:00:39;22.10;99.90
25937;DHT22;13733;51.178;4.450;2023-06-10T02:03:08;22.10;99.90
25937;DHT22;13733;51.178;4.450;2023-06-10T02:05:33;22.00;99.90
25937;DHT22;13733;51.178;4.450;2023-06-10T02:07:59;22.00;99.90
25937;DHT22;13733;51.178;4.450;2023-06-10T02:10:26;22.00;99.90
25937;DHT22;13733;51.178;4.450;2023-06-10T02:12:51;22.00;99.90
25937;DHT22;13733;51.178;4.450;2023-06-10T02:15:18;21.90;99.90
25937;DHT22;13733;51.178;4.450;2023-06-10T02:17:46;21.90;99.90
25937;DHT22;13733;51.178;4.450;2023-06-10T02:20:13;21.90;99.90
25937;DHT22;13733;51.178;4.450;2023-06-10T02:22:40;21.80;99.90
25937;DHT22;13733;51.178;4.450;2023-06-10T02:25:07;21.80;99.90
25937;DHT22;13733;51.178;4.450;2023-06-10T02:27:33;21.70;99.90
25937;DHT22;13733;51.178;4.450;2023-06-10T02:29:59;21.70;99.90
25937;DHT22;13733;51.178;4.450;2023-06-10T02:32:26;21.60;99.90
25937;DHT22;13733;51.178;4.450;2023-06-10T02:34:52;21.60;99.90
25937;DHT22;13733;51.178;4.450;2023-06-10T02:37:21;21.60;99.90
25937;DHT22;13733;51.178;4.450;2023-06-10T02:39:47;21.50;99.90
25937;DHT22;13733;51.178;4.450;2023-06-10T02:42:13;21.50;99.90
25937;DHT22;13733;51.178;4.450;2023-06-10T02:44:39;21.50;99.90
25937;DHT22;13733;51.178;4.450;2023-06-10T02:47:07;21.50;99.90
25937;DHT22;13733;51.178;4.450;2023-06-10T02:49:34;21.40;99.90
25937;DHT22;13733;51.178;4.450;2023-06-10T02:52:00;21.30;99.90
25937;DHT22;13733;51.178;4.450;2023-06-10T02:54:26;21.40;99.90
25937;DHT22;13733;51.178;4.450;2023-06-10T02:56:54;21.30;99.90
25937;DHT22;13733;51.178;4.450;2023-06-10T02:59:23;21.30;99.90
25937;DHT22;13733;51.178;4.450;2023-06-10T03:01:49;21.30;99.90
25937;DHT22;13733;51.178;4.450;2023-06-10T03:04:15;21.30;99.90
25937;DHT22;13733;51.178;4.450;2023-06-10T03:06:48;21.20;99.90
25937;DHT22;13733;51.178;4.450;2023-06-10T03:09:20;21.10;99.90
25937;DHT22;13733;51.178;4.450;2023-06-10T03:11:49;21.10;99.90
25937;DHT22;13733;51.178;4.450;2023-06-10T03:14:15;21.10;99.90
25937;DHT22;13733;51.178;4.450;2023-06-10T03:16:41;21.10;99.90
25937;DHT22;13733;51.178;4.450;2023-06-10T03:19:09;21.10;99.90
25937;DHT22;13733;51.178;4.450;2023-06-10T03:21:35;21.10;99.90
25937;DHT22;13733;51.178;4.450;2023-06-10T03:24:04;21.00;99.90
25937;DHT22;13733;51.178;4.450;2023-06-10T03:26:31;21.00;99.90
25937;DHT22;13733;51.178;4.450;2023-06-10T03:28:58;21.00;99.90
25937;DHT22;13733;51.178;4.450;2023-06-10T03:31:24;21.00;99.90
25937;DHT22;13733;51.178;4.450;2023-06-10T03:33:52;21.00;99.90
25937;DHT22;13733;51.178;4.450;2023-06-10T03:36:17;21.00;99.90
25937;DHT22;13733;51.178;4.450;2023-06-10T03:38:43;21.00;99.90
25937;DHT22;13733;51.178;4.450;2023-06-10T03:41:09;20.90;99.90
25937;DHT22;13733;51.178;4.450;2023-06-10T03:43:37;20.80;99.90
25937;DHT22;13733;51.178;4.450;2023-06-10T03:46:04;20.80;99.90
25937;DHT22;13733;51.178;4.450;2023-06-10T03:48:32;20.80;99.90
25937;DHT22;13733;51.178;4.450;2023-06-10T03:50:58;20.80;99.90
25937;DHT22;13733;51.178;4.450;2023-06-10T03:53:24;20.80;99.90
25937;DHT22;13733;51.178;4.450;2023-06-10T03:55:50;20.80;99.90
25937;DHT22;13733;51.178;4.450;2023-06-10T03:58:20;20.80;99.90
25937;DHT22;13733;51.178;4.450;2023-06-10T04:00:46;20.90;99.90
25937;DHT22;13733;51.178;4.450;2023-06-10T04:03:12;20.90;99.90
25937;DHT22;13733;51.178;4.450;2023-06-10T04:05:43;20.90;99.90
25937;DHT22;13733;51.178;4.450;2023-06-10T04:08:09;20.80;99.90
25937;DHT22;13733;51.178;4.450;2023-06-10T04:10:35;20.90;99.90
25937;DHT22;13733;51.178;4.450;2023-06-10T04:13:01;20.90;99.90
25937;DHT22;13733;51.178;4.450;2023-06-10T04:15:32;20.80;99.90
25937;DHT22;13733;51.178;4.450;2023-06-10T04:18:05;20.90;99.90
25937;DHT22;13733;51.178;4.450;2023-06-10T04:20:32;20.90;99.90
25937;DHT22;13733;51.178;4.450;2023-06-10T04:22:57;20.90;99.90
25937;DHT22;13733;51.178;4.450;2023-06-10T04:25:25;20.90;99.90
25937;DHT22;13733;51.178;4.450;2023-06-10T04:27:51;20.90;99.90
25937;DHT22;13733;51.178;4.450;2023-06-10T04:30:17;20.90;99.90
25937;DHT22;13733;51.178;4.450;2023-06-10T04:32:44;21.00;99.90
25937;DHT22;13733;51.178;4.450;2023-06-10T04:35:15;21.00;99.90
25937;DHT22;13733;51.178;4.450;2023-06-10T04:37:41;21.00;99.90
25937;DHT22;13733;51.178;4.450;2023-06-10T04:40:08;21.10;99.90
25937;DHT22;13733;51.178;4.450;2023-06-10T04:42:35;21.10;99.90
25937;DHT22;13733;51.178;4.450;2023-06-10T04:45:01;21.10;99.90
25937;DHT22;13733;51.178;4.450;2023-06-10T04:47:28;21.10;99.90
25937;DHT22;13733;51.178;4.450;2023-06-10T04:49:54;21.20;99.90
25937;DHT22;13733;51.178;4.450;2023-06-10T04:52:19;21.20;99.90
25937;DHT22;13733;51.178;4.450;2023-06-10T04:54:47;21.10;99.90
25937;DHT22;13733;51.178;4.450;2023-06-10T04:57:13;21.20;99.90
25937;DHT22;13733;51.178;4.450;2023-06-10T04:59:39;21.20;99.90
25937;DHT22;13733;51.178;4.450;2023-06-10T05:02:05;21.30;99.90
25937;DHT22;13733;51.178;4.450;2023-06-10T05:04:31;21.40;99.90
25937;DHT22;13733;51.178;4.450;2023-06-10T05:06:57;21.40;99.90
25937;DHT22;13733;51.178;4.450;2023-06-10T05:09:22;21.40;99.90
25937;DHT22;13733;51.178;4.450;2023-06-10T05:11:48;21.40;99.90
25937;DHT22;13733;51.178;4.450;2023-06-10T05:14:14;21.50;99.90
25937;DHT22;13733;51.178;4.450;2023-06-10T05:16:41;21.50;99.90
25937;DHT22;13733;51.178;4.450;2023-06-10T05:19:08;21.60;99.90
25937;DHT22;13733;51.178;4.450;2023-06-10T05:21:34;21.60;99.90
25937;DHT22;13733;51.178;4.450;2023-06-10T05:24:00;21.60;99.90
25937;DHT22;13733;51.178;4.450;2023-06-10T05:26:25;21.60;99.90
25937;DHT22;13733;51.178;4.450;2023-06-10T05:28:51;21.70;99.90
25937;DHT22;13733;51.178;4.450;2023-06-10T05:31:18;21.80;99.90
25937;DHT22;13733;51.178;4.450;2023-06-10T05:33:43;21.80;99.90
25937;DHT22;13733;51.178;4.450;2023-06-10T05:36:09;21.90;99.90
25937;DHT22;13733;51.178;4.450;2023-06-10T05:38:35;22.00;99.90
25937;DHT22;13733;51.178;4.450;2023-06-10T05:41:01;22.00;99.90
25937;DHT22;13733;51.178;4.450;2023-06-10T05:43:27;22.00;99.90
25937;DHT22;13733;51.178;4.450;2023-06-10T05:45:52;22.10;99.90
25937;DHT22;13733;51.178;4.450;2023-06-10T05:48:18;22.20;99.90
25937;DHT22;13733;51.178;4.450;2023-06-10T05:50:45;22.30;99.90
25937;DHT22;13733;51.178;4.450;2023-06-10T05:53:16;22.30;99.90
25937;DHT22;13733;51.178;4.450;2023-06-10T05:55:46;22.40;99.90
25937;DHT22;13733;51.178;4.450;2023-06-10T05:58:13;22.50;99.90
25937;DHT22;13733;51.178;4.450;2023-06-10T06:00:39;22.60;99.90
25937;DHT22;13733;51.178;4.450;2023-06-10T06:03:09;22.70;99.90
25937;DHT22;13733;51.178;4.450;2023-06-10T06:05:36;22.70;99.90
25937;DHT22;13733;51.178;4.450;2023-06-10T06:08:07;22.80;99.90
25937;DHT22;13733;51.178;4.450;2023-06-10T06:10:33;22.70;99.90
25937;DHT22;13733;51.178;4.450;2023-06-10T06:12:59;22.80;99.90
25937;DHT22;13733;51.178;4.450;2023-06-10T06:15:25;22.80;99.90
25937;DHT22;13733;51.178;4.450;2023-06-10T06:17:51;22.80;99.90
25937;DHT22;13733;51.178;4.450;2023-06-10T06:20:21;22.90;99.90
25937;DHT22;13733;51.178;4.450;2023-06-10T06:22:48;23.00;99.90
25937;DHT22;13733;51.178;4.450;2023-06-10T06:25:15;23.00;99.90
25937;DHT22;13733;51.178;4.450;2023-06-10T06:27:41;23.00;99.90
25937;DHT22;13733;51.178;4.450;2023-06-10T06:30:08;23.10;99.90
25937;DHT22;13733;51.178;4.450;2023-06-10T06:32:34;23.10;99.90
25937;DHT22;13733;51.178;4.450;2023-06-10T06:35:00;23.20;99.90
25937;DHT22;13733;51.178;4.450;2023-06-10T06:37:26;23.20;99.90
25937;DHT22;13733;51.178;4.450;2023-06-10T06:40:04;23.40;99.90
25937;DHT22;13733;51.178;4.450;2023-06-10T06:42:30;23.50;99.90
25937;DHT22;13733;51.178;4.450;2023-06-10T06:45:01;23.40;99.90
25937;DHT22;13733;51.178;4.450;2023-06-10T06:47:27;23.50;99.90
25937;DHT22;13733;51.178;4.450;2023-06-10T06:49:53;23.60;99.90
25937;DHT22;13733;51.178;4.450;2023-06-10T06:52:18;23.60;99.90
25937;DHT22;13733;51.178;4.450;2023-06-10T06:54:45;23.80;99.90
25937;DHT22;13733;51.178;4.450;2023-06-10T06:57:10;23.80;99.90
25937;DHT22;13733;51.178;4.450;2023-06-10T06:59:36;24.00;99.90
25937;DHT22;13733;51.178;4.450;2023-06-10T07:02:03;24.10;99.90
25937;DHT22;13733;51.178;4.450;2023-06-10T07:04:29;24.20;99.90
25937;DHT22;13733;51.178;4.450;2023-06-10T07:06:55;24.30;99.90
25937;DHT22;13733;51.178;4.450;2023-06-10T07:09:21;24.50;99.90
25937;DHT22;13733;51.178;4.450;2023-06-10T07:11:47;24.60;99.90
25937;DHT22;13733;51.178;4.450;2023-06-10T07:14:13;24.80;99.90
25937;DHT22;13733;51.178;4.450;2023-06-10T07:16:38;24.80;99.90
25937;DHT22;13733;51.178;4.450;2023-06-10T07:19:04;24.90;99.90
25937;DHT22;13733;51.178;4.450;2023-06-10T07:21:30;25.00;99.90
25937;DHT22;13733;51.178;4.450;2023-06-10T07:23:57;25.20;99.90
25937;DHT22;13733;51.178;4.450;2023-06-10T07:26:23;25.30;99.90
25937;DHT22;13733;51.178;4.450;2023-06-10T07:28:49;25.30;99.90
25937;DHT22;13733;51.178;4.450;2023-06-10T07:31:15;25.40;99.90
25937;DHT22;13733;51.178;4.450;2023-06-10T07:33:41;25.50;99.90
25937;DHT22;13733;51.178;4.450;2023-06-10T07:36:07;25.60;99.90
25937;DHT22;13733;51.178;4.450;2023-06-10T07:38:32;25.60;99.90
25937;DHT22;13733;51.178;4.450;2023-06-10T07:40:59;25.70;99.90
25937;DHT22;13733;51.178;4.450;2023-06-10T07:43:25;25.80;99.90
25937;DHT22;13733;51.178;4.450;2023-06-10T07:45:51;25.80;99.90
25937;DHT22;13733;51.178;4.450;2023-06-10T07:48:16;25.70;99.90
25937;DHT22;13733;51.178;4.450;2023-06-10T07:50:42;25.80;99.90
25937;DHT22;13733;51.178;4.450;2023-06-10T07:53:08;25.80;99.90
25937;DHT22;13733;51.178;4.450;2023-06-10T07:55:34;25.90;99.90
25937;DHT22;13733;51.178;4.450;2023-06-10T07:58:00;26.00;99.90
25937;DHT22;13733;51.178;4.450;2023-06-10T08:00:26;26.00;99.90
25937;DHT22;13733;51.178;4.450;2023-06-10T08:02:51;26.10;99.90
25937;DHT22;13733;51.178;4.450;2023-06-10T08:05:17;26.20;99.90
25937;DHT22;13733;51.178;4.450;2023-06-10T08:07:44;26.20;99.90
25937;DHT22;13733;51.178;4.450;2023-06-10T08:10:10;26.20;99.90
25937;DHT22;13733;51.178;4.450;2023-06-10T08:12:36;26.40;99.90
25937;DHT22;13733;51.178;4.450;2023-06-10T08:15:02;26.50;99.70
25937;DHT22;13733;51.178;4.450;2023-06-10T08:17:31;26.60;98.90
25937;DHT22;13733;51.178;4.450;2023-06-10T08:19:57;26.70;98.00
25937;DHT22;13733;51.178;4.450;2023-06-10T08:22:23;26.60;97.80
25937;DHT22;13733;51.178;4.450;2023-06-10T08:24:49;26.70;98.20
25937;DHT22;13733;51.178;4.450;2023-06-10T08:27:15;26.80;97.60
25937;DHT22;13733;51.178;4.450;2023-06-10T08:29:40;26.90;97.70
25937;DHT22;13733;51.178;4.450;2023-06-10T08:32:06;27.00;96.60
25937;DHT22;13733;51.178;4.450;2023-06-10T08:34:35;27.00;95.60
25937;DHT22;13733;51.178;4.450;2023-06-10T08:37:02;27.10;96.60
25937;DHT22;13733;51.178;4.450;2023-06-10T08:39:28;27.20;96.40
25937;DHT22;13733;51.178;4.450;2023-06-10T08:42:00;27.50;95.90
25937;DHT22;13733;51.178;4.450;2023-06-10T08:44:29;27.70;94.90
25937;DHT22;13733;51.178;4.450;2023-06-10T08:46:59;27.90;93.10
25937;DHT22;13733;51.178;4.450;2023-06-10T08:49:27;28.00;91.90
25937;DHT22;13733;51.178;4.450;2023-06-10T08:51:59;28.20;90.90
25937;DHT22;13733;51.178;4.450;2023-06-10T08:54:28;28.20;90.00
25937;DHT22;13733;51.178;4.450;2023-06-10T08:56:55;28.20;89.30
25937;DHT22;13733;51.178;4.450;2023-06-10T08:59:23;28.30;87.20
25937;DHT22;13733;51.178;4.450;2023-06-10T09:01:51;28.40;88.70
25937;DHT22;13733;51.178;4.450;2023-06-10T09:04:18;28.60;87.80
25937;DHT22;13733;51.178;4.450;2023-06-10T09:06:45;28.80;88.50
25937;DHT22;13733;51.178;4.450;2023-06-10T09:09:14;29.00;83.30
25937;DHT22;13733;51.178;4.450;2023-06-10T09:11:42;29.10;81.30
25937;DHT22;13733;51.178;4.450;2023-06-10T09:14:10;29.10;82.10
25937;DHT22;13733;51.178;4.450;2023-06-10T09:16:38;29.10;81.00
25937;DHT22;13733;51.178;4.450;2023-06-10T09:19:05;29.10;80.40
25937;DHT22;13733;51.178;4.450;2023-06-10T09:21:34;29.30;81.80
25937;DHT22;13733;51.178;4.450;2023-06-10T09:24:01;29.50;83.10
25937;DHT22;13733;51.178;4.450;2023-06-10T09:26:28;29.50;82.50
25937;DHT22;13733;51.178;4.450;2023-06-10T09:29:05;29.60;83.90
25937;DHT22;13733;51.178;4.450;2023-06-10T09:31:33;29.70;80.40
25937;DHT22;13733;51.178;4.450;2023-06-10T09:34:14;29.80;78.30
25937;DHT22;13733;51.178;4.450;2023-06-10T09:36:41;30.00;77.80
25937;DHT22;13733;51.178;4.450;2023-06-10T09:39:19;30.00;76.90
25937;DHT22;13733;51.178;4.450;2023-06-10T09:41:46;30.00;74.50
25937;DHT22;13733;51.178;4.450;2023-06-10T09:44:16;30.20;72.00
25937;DHT22;13733;51.178;4.450;2023-06-10T09:46:45;30.30;70.40
25937;DHT22;13733;51.178;4.450;2023-06-10T09:49:11;30.40;68.20
25937;DHT22;13733;51.178;4.450;2023-06-10T09:51:37;30.40;68.90
25937;DHT22;13733;51.178;4.450;2023-06-10T09:54:03;30.50;66.60
25937;DHT22;13733;51.178;4.450;2023-06-10T09:56:35;30.70;67.80
25937;DHT22;13733;51.178;4.450;2023-06-10T09:59:03;30.60;65.90
25937;DHT22;13733;51.178;4.450;2023-06-10T10:01:31;30.80;65.80
25937;DHT22;13733;51.178;4.450;2023-06-10T10:03:57;30.90;63.30
25937;DHT22;13733;51.178;4.450;2023-06-10T10:06:23;31.10;61.80
25937;DHT22;13733;51.178;4.450;2023-06-10T10:08:50;31.30;61.30
25937;DHT22;13733;51.178;4.450;2023-06-10T10:11:21;31.40;60.90
25937;DHT22;13733;51.178;4.450;2023-06-10T10:13:49;31.40;59.70
25937;DHT22;13733;51.178;4.450;2023-06-10T10:16:17;31.40;56.80
25937;DHT22;13733;51.178;4.450;2023-06-10T10:18:51;31.50;53.80
25937;DHT22;13733;51.178;4.450;2023-06-10T10:21:22;31.60;54.30
25937;DHT22;13733;51.178;4.450;2023-06-10T10:26:48;31.70;51.90
25937;DHT22;13733;51.178;4.450;2023-06-10T10:29:30;31.80;50.10
25937;DHT22;13733;51.178;4.450;2023-06-10T10:31:59;31.80;48.00
25937;DHT22;13733;51.178;4.450;2023-06-10T10:34:50;32.10;48.80
25937;DHT22;13733;51.178;4.450;2023-06-10T10:37:20;32.20;46.70
25937;DHT22;13733;51.178;4.450;2023-06-10T10:39:47;32.30;45.50
25937;DHT22;13733;51.178;4.450;2023-06-10T10:42:13;32.40;46.40
25937;DHT22;13733;51.178;4.450;2023-06-10T10:44:40;32.60;44.60
25937;DHT22;13733;51.178;4.450;2023-06-10T10:47:10;32.60;43.60
25937;DHT22;13733;51.178;4.450;2023-06-10T10:49:37;32.50;42.30
25937;DHT22;13733;51.178;4.450;2023-06-10T10:52:03;32.60;42.20
25937;DHT22;13733;51.178;4.450;2023-06-10T10:54:33;32.70;41.60
25937;DHT22;13733;51.178;4.450;2023-06-10T10:57:15;32.90;42.10
25937;DHT22;13733;51.178;4.450;2023-06-10T11:02:18;33.00;42.10
25937;DHT22;13733;51.178;4.450;2023-06-10T11:04:47;33.30;43.60
25937;DHT22;13733;51.178;4.450;2023-06-10T11:07:14;33.90;40.80
25937;DHT22;13733;51.178;4.450;2023-06-10T11:10:12;34.80;40.20
25937;DHT22;13733;51.178;4.450;2023-06-10T11:12:53;35.80;38.70
25937;DHT22;13733;51.178;4.450;2023-06-10T11:15:29;36.30;37.10
25937;DHT22;13733;51.178;4.450;2023-06-10T11:18:12;37.00;35.40
25937;DHT22;13733;51.178;4.450;2023-06-10T11:20:58;37.50;33.40
25937;DHT22;13733;51.178;4.450;2023-06-10T11:28:38;39.00;30.80
25937;DHT22;13733;51.178;4.450;2023-06-10T11:31:04;38.70;30.50
25937;DHT22;13733;51.178;4.450;2023-06-10T11:33:31;38.60;29.60
25937;DHT22;13733;51.178;4.450;2023-06-10T11:35:57;38.70;29.20
25937;DHT22;13733;51.178;4.450;2023-06-10T11:38:24;38.70;28.80
25937;DHT22;13733;51.178;4.450;2023-06-10T11:40:51;38.80;28.60
25937;DHT22;13733;51.178;4.450;2023-06-10T11:43:17;39.30;27.80
25937;DHT22;13733;51.178;4.450;2023-06-10T11:45:43;39.80;27.90
25937;DHT22;13733;51.178;4.450;2023-06-10T11:48:10;40.20;27.90
25937;DHT22;13733;51.178;4.450;2023-06-10T11:50:36;40.30;28.00
25937;DHT22;13733;51.178;4.450;2023-06-10T11:53:03;40.40;28.00
25937;DHT22;13733;51.178;4.450;2023-06-10T11:55:41;41.10;27.90
25937;DHT22;13733;51.178;4.450;2023-06-10T11:58:21;41.00;27.00
25937;DHT22;13733;51.178;4.450;2023-06-10T12:00:49;40.80;26.50
25937;DHT22;13733;51.178;4.450;2023-06-10T12:03:15;41.10;26.60
25937;DHT22;13733;51.178;4.450;2023-06-10T12:05:58;40.30;26.70
25937;DHT22;13733;51.178;4.450;2023-06-10T12:08:24;40.70;26.50
25937;DHT22;13733;51.178;4.450;2023-06-10T12:10:50;40.60;26.60
25937;DHT22;13733;51.178;4.450;2023-06-10T12:13:16;40.30;27.50
25937;DHT22;13733;51.178;4.450;2023-06-10T12:15:45;39.50;26.40
25937;DHT22;13733;51.178;4.450;2023-06-10T12:18:22;39.20;26.50
25937;DHT22;13733;51.178;4.450;2023-06-10T12:20:48;39.80;26.90
25937;DHT22;13733;51.178;4.450;2023-06-10T12:23:16;40.70;26.00
25937;DHT22;13733;51.178;4.450;2023-06-10T12:25:52;39.70;25.60
25937;DHT22;13733;51.178;4.450;2023-06-10T12:28:23;40.20;26.00
25937;DHT22;13733;51.178;4.450;2023-06-10T12:30:49;39.10;25.50
25937;DHT22;13733;51.178;4.450;2023-06-10T12:33:19;38.50;26.20
25937;DHT22;13733;51.178;4.450;2023-06-10T12:35:52;38.30;26.80
25937;DHT22;13733;51.178;4.450;2023-06-10T12:38:23;39.00;25.90
25937;DHT22;13733;51.178;4.450;2023-06-10T12:40:50;39.60;26.20
25937;DHT22;13733;51.178;4.450;2023-06-10T12:43:23;40.10;26.50
25937;DHT22;13733;51.178;4.450;2023-06-10T12:45:49;40.50;25.30
25937;DHT22;13733;51.178;4.450;2023-06-10T12:48:23;40.30;25.00
25937;DHT22;13733;51.178;4.450;2023-06-10T12:50:57;39.40;25.50
25937;DHT22;13733;51.178;4.450;2023-06-10T12:53:24;38.40;26.20
25937;DHT22;13733;51.178;4.450;2023-06-10T12:55:51;39.10;26.40
25937;DHT22;13733;51.178;4.450;2023-06-10T12:58:16;38.80;25.80
25937;DHT22;13733;51.178;4.450;2023-06-10T13:00:42;38.80;26.10
25937;DHT22;13733;51.178;4.450;2023-06-10T13:03:09;38.60;25.80
25937;DHT22;13733;51.178;4.450;2023-06-10T13:05:36;39.50;25.50
25937;DHT22;13733;51.178;4.450;2023-06-10T13:08:08;39.80;25.40
25937;DHT22;13733;51.178;4.450;2023-06-10T13:10:35;39.90;24.50
25937;DHT22;13733;51.178;4.450;2023-06-10T13:13:03;40.20;24.10
25937;DHT22;13733;51.178;4.450;2023-06-10T13:15:37;40.10;24.10
25937;DHT22;13733;51.178;4.450;2023-06-10T13:18:03;41.10;24.20
25937;DHT22;13733;51.178;4.450;2023-06-10T13:20:29;41.70;23.80
25937;DHT22;13733;51.178;4.450;2023-06-10T13:22:55;41.00;24.10
25937;DHT22;13733;51.178;4.450;2023-06-10T13:25:21;41.50;23.20
25937;DHT22;13733;51.178;4.450;2023-06-10T13:27:47;41.90;23.50
25937;DHT22;13733;51.178;4.450;2023-06-10T13:30:13;42.40;23.00
25937;DHT22;13733;51.178;4.450;2023-06-10T13:32:38;42.30;23.00
25937;DHT22;13733;51.178;4.450;2023-06-10T13:35:04;42.90;22.80
25937;DHT22;13733;51.178;4.450;2023-06-10T13:37:30;42.10;22.40
25937;DHT22;13733;51.178;4.450;2023-06-10T13:39:57;41.10;22.70
25937;DHT22;13733;51.178;4.450;2023-06-10T13:42:23;41.80;23.70
25937;DHT22;13733;51.178;4.450;2023-06-10T13:44:51;42.10;23.00
25937;DHT22;13733;51.178;4.450;2023-06-10T13:47:19;43.00;22.40
25937;DHT22;13733;51.178;4.450;2023-06-10T13:49:45;43.30;21.70
25937;DHT22;13733;51.178;4.450;2023-06-10T13:52:10;42.70;22.00
25937;DHT22;13733;51.178;4.450;2023-06-10T13:54:36;41.20;22.30
25937;DHT22;13733;51.178;4.450;2023-06-10T13:57:03;41.70;22.90
25937;DHT22;13733;51.178;4.450;2023-06-10T13:59:29;42.70;22.50
25937;DHT22;13733;51.178;4.450;2023-06-10T14:01:54;44.10;21.40
25937;DHT22;13733;51.178;4.450;2023-06-10T14:04:22;44.40;21.30
25937;DHT22;13733;51.178;4.450;2023-06-10T14:06:49;44.50;20.80
25937;DHT22;13733;51.178;4.450;2023-06-10T14:09:14;45.00;21.00
25937;DHT22;13733;51.178;4.450;2023-06-10T14:11:41;44.90;20.60
25937;DHT22;13733;51.178;4.450;2023-06-10T14:14:07;44.50;20.20
25937;DHT22;13733;51.178;4.450;2023-06-10T14:16:33;44.70;20.20
25937;DHT22;13733;51.178;4.450;2023-06-10T14:18:59;45.40;19.90
25937;DHT22;13733;51.178;4.450;2023-06-10T14:21:26;45.80;19.40
25937;DHT22;13733;51.178;4.450;2023-06-10T14:23:52;45.20;20.00
25937;DHT22;13733;51.178;4.450;2023-06-10T14:26:19;44.90;20.40
25937;DHT22;13733;51.178;4.450;2023-06-10T14:28:50;44.90;20.60
25937;DHT22;13733;51.178;4.450;2023-06-10T14:31:16;44.30;20.20
25937;DHT22;13733;51.178;4.450;2023-06-10T14:33:41;44.70;20.30
25937;DHT22;13733;51.178;4.450;2023-06-10T14:36:09;43.60;20.50
25937;DHT22;13733;51.178;4.450;2023-06-10T14:38:35;44.30;20.50
25937;DHT22;13733;51.178;4.450;2023-06-10T14:41:01;44.20;19.70
25937;DHT22;13733;51.178;4.450;2023-06-10T14:43:27;43.60;20.00
25937;DHT22;13733;51.178;4.450;2023-06-10T14:45:53;44.40;20.00
25937;DHT22;13733;51.178;4.450;2023-06-10T14:48:21;45.50;19.20
25937;DHT22;13733;51.178;4.450;2023-06-10T14:50:47;45.60;19.40
25937;DHT22;13733;51.178;4.450;2023-06-10T14:53:17;45.90;19.50
25937;DHT22;13733;51.178;4.450;2023-06-10T14:55:43;46.40;19.10
25937;DHT22;13733;51.178;4.450;2023-06-10T14:58:09;46.10;18.80
25937;DHT22;13733;51.178;4.450;2023-06-10T15:00:35;45.90;19.10
25937;DHT22;13733;51.178;4.450;2023-06-10T15:03:00;45.90;19.00
25937;DHT22;13733;51.178;4.450;2023-06-10T15:05:26;45.80;18.50
25937;DHT22;13733;51.178;4.450;2023-06-10T15:07:52;45.60;18.40
25937;DHT22;13733;51.178;4.450;2023-06-10T15:10:18;45.90;18.30
25937;DHT22;13733;51.178;4.450;2023-06-10T15:12:44;45.40;18.70
25937;DHT22;13733;51.178;4.450;2023-06-10T15:15:10;46.00;19.10
25937;DHT22;13733;51.178;4.450;2023-06-10T15:17:36;46.50;18.40
25937;DHT22;13733;51.178;4.450;2023-06-10T15:20:02;47.00;18.10
25937;DHT22;13733;51.178;4.450;2023-06-10T15:22:28;46.80;18.40
25937;DHT22;13733;51.178;4.450;2023-06-10T15:24:53;46.60;18.60
25937;DHT22;13733;51.178;4.450;2023-06-10T15:27:20;45.30;18.80
25937;DHT22;13733;51.178;4.450;2023-06-10T15:29:45;45.40;19.10
25937;DHT22;13733;51.178;4.450;2023-06-10T15:32:11;46.10;19.20
25937;DHT22;13733;51.178;4.450;2023-06-10T15:34:37;46.30;18.50
25937;DHT22;13733;51.178;4.450;2023-06-10T15:37:04;44.80;17.70
25937;DHT22;13733;51.178;4.450;2023-06-10T15:39:30;44.60;18.30
25937;DHT22;13733;51.178;4.450;2023-06-10T15:41:56;44.70;18.20
25937;DHT22;13733;51.178;4.450;2023-06-10T15:44:23;45.50;17.80
25937;DHT22;13733;51.178;4.450;2023-06-10T15:46:48;46.20;17.40
25937;DHT22;13733;51.178;4.450;2023-06-10T15:49:16;47.00;17.80